Greenehaven, Arizona
Current Conditions -  °F | °C
As of 6:41 AM on Friday 19 Dec 2014 (Local Time) from KPGA Reporting Station
Haze Haze  
Wind Chill: 32°   Ceiling: Unl
Heat Index: 32°   Visibility: 3mi
Dew Point: 26°   Wind: 3mph
Humidity: 79%   Direction: 230°SW
Pressure: 30.25"   Gusts: NA
Location:  36.8282°N, 111.153°W
Report Text: KPGA 191341Z AUTO 23003KT 3SM HZ CLR 00/M03 A3025 RMK AO2 T00001033 TSNO
Loading
Personal Weather Stations






























Interactive Weather Map New forecast layout! Learn more

10-Day Weather Forecast

Advertisements
Track Severe Weather on mobile